Decoded Metar for LFRB (BREST in FRANCE) (IATA:BES) | Meteo·Mobile Aviation Weather
aviador You're here:

LFRB Decoded Metar

BREST in FRANCE
Report Time2018-11-12 23:00:00
UTC Time2018-11-12 23:18:26
Flight Rules mvfr MVFR
Wind240° at 13 kt
W.Decomp.*RWY 25: 12.9 kt HW 1.6 kt LCW
W.Rank240° ranks 6
Current wind is above 240° avg. (9.7)
Visibility9999 m
Phenomena:Shower Rain
Clouds:N/A
Expected CloudBase > 1,200 ft AGL from Temp-Dew spread
Ceiling1,600 ft
Temp11°C (ISA -3)
Dew Point08°C (82% RH)
AAT5.9°C
QNH1017 hPa
Density Alt-49 ft
Elevation338 ft
Report Wrong Elevation
Raw Report
METAR LFRB 122300Z AUTO 24013KT CAVOK 11/08 Q1017 TEMPO SHRA BKN016TCU=

Extra information for LFRB:More info

Metar Taf Metar & Taf Last 4 Metars F.Rules Stats Wind Profile Meteogram Temp Stats Airport Information Weather charts Add Link Nearby VenuesMetar ALERT Operation Metar Decoded Social comments